Ei varoituksia voimassa -

Lähimmät METAR asemat

 

EFPO - Pori (mil/Civ), Finland
Distance from station: PLU 42km
Päivitetty: 15/12/2018 16:50
Vaihtelevaa
Vaihtelevaa
 Wind from KA
Tuuli: KA 13 km/h
Lämpötila: -5°C
Wind Chill: -10°C
Kastepiste: -7°C
Kosteus: 86%
Ilmanpaine: 1037 hPa
Clouds: Vaihtelevaa
Visibility: 10 km
Cloud details: Vaihtelevaa 671 m
2018/12/15 14:50 EFPO 151450Z AUTO 13007KT 9999 OVC022/// M05/M07 Q1037
EFTU - Turku/Abo, Finland
Distance from station: E 68km
Päivitetty: 15/12/2018 16:50
Vaihtelevaa
Vaihtelevaa
 Wind from varies
Tuuli: varies 4 km/h
Lämpötila: -4°C
Kastepiste: -7°C
Kosteus: 80%
Ilmanpaine: 1037 hPa
Clouds: Vaihtelevaa
Visibility: 10 km
Cloud details: Vaihtelevaa 732 m
2018/12/15 14:50 EFTU 151450Z AUTO VRB02KT 9999 OVC024/// M04/M07 Q1037
 
EFTP - Tampere/Pirkkala, Finland
Distance from station: IKO 84km
Päivitetty: 15/12/2018 16:50
Enimmäkseen pilvistä
Enimmäkseen pilvistä
 Wind from IKO
Tuuli: IKO 9 km/h
Lämpötila: -7°C
Wind Chill: -12°C
Kastepiste: -8°C
Kosteus: 93%
Ilmanpaine: 1037 hPa
Clouds: Enimmäkseen pilvistä
Visibility: 10 km
Cloud details: Few Clouds 122 m
Enimmäkseen pilvistä 274 m
2018/12/15 14:50 EFTP 151450Z AUTO 07005KT 9999 FEW004 BKN009 M07/M08 Q1037